sensor_id;sensor_type;location;lat;lon;timestamp;temperature;humidity
30174;DHT22;16985;50.814;8.530;2022-07-23T00:00:34;19.50;92.20
30174;DHT22;16985;50.814;8.530;2022-07-23T00:02:59;19.50;92.30
30174;DHT22;16985;50.814;8.530;2022-07-23T00:05:25;19.50;92.30
30174;DHT22;16985;50.814;8.530;2022-07-23T00:07:51;19.60;92.40
30174;DHT22;16985;50.814;8.530;2022-07-23T00:10:17;19.50;92.40
30174;DHT22;16985;50.814;8.530;2022-07-23T00:12:43;19.50;92.80
30174;DHT22;16985;50.814;8.530;2022-07-23T00:15:09;19.40;93.50
30174;DHT22;16985;50.814;8.530;2022-07-23T00:17:35;19.30;95.00
30174;DHT22;16985;50.814;8.530;2022-07-23T00:20:02;19.20;97.50
30174;DHT22;16985;50.814;8.530;2022-07-23T00:22:28;19.10;98.20
30174;DHT22;16985;50.814;8.530;2022-07-23T00:24:55;19.10;98.00
30174;DHT22;16985;50.814;8.530;2022-07-23T00:27:21;19.20;97.80
30174;DHT22;16985;50.814;8.530;2022-07-23T00:29:47;19.10;97.60
30174;DHT22;16985;50.814;8.530;2022-07-23T00:32:13;19.20;98.10
30174;DHT22;16985;50.814;8.530;2022-07-23T00:34:39;19.20;99.90
30174;DHT22;16985;50.814;8.530;2022-07-23T00:37:05;19.10;99.90
30174;DHT22;16985;50.814;8.530;2022-07-23T00:39:30;19.10;99.90
30174;DHT22;16985;50.814;8.530;2022-07-23T00:41:56;19.10;99.90
30174;DHT22;16985;50.814;8.530;2022-07-23T00:44:24;19.10;99.90
30174;DHT22;16985;50.814;8.530;2022-07-23T00:46:53;19.10;99.90
30174;DHT22;16985;50.814;8.530;2022-07-23T00:49:24;19.00;99.90
30174;DHT22;16985;50.814;8.530;2022-07-23T00:51:52;19.10;99.90
30174;DHT22;16985;50.814;8.530;2022-07-23T00:54:19;19.00;99.90
30174;DHT22;16985;50.814;8.530;2022-07-23T00:56:46;19.00;99.90
30174;DHT22;16985;50.814;8.530;2022-07-23T00:59:13;19.00;99.90
30174;DHT22;16985;50.814;8.530;2022-07-23T01:01:40;19.00;99.90
30174;DHT22;16985;50.814;8.530;2022-07-23T01:04:06;19.00;99.90
30174;DHT22;16985;50.814;8.530;2022-07-23T01:06:36;19.00;99.90
30174;DHT22;16985;50.814;8.530;2022-07-23T01:09:05;18.90;99.90
30174;DHT22;16985;50.814;8.530;2022-07-23T01:11:32;18.90;99.90
30174;DHT22;16985;50.814;8.530;2022-07-23T01:13:59;18.90;99.90
30174;DHT22;16985;50.814;8.530;2022-07-23T01:16:25;18.90;99.90
30174;DHT22;16985;50.814;8.530;2022-07-23T01:18:50;18.90;99.90
30174;DHT22;16985;50.814;8.530;2022-07-23T01:21:17;18.90;99.90
30174;DHT22;16985;50.814;8.530;2022-07-23T01:23:44;18.80;99.90
30174;DHT22;16985;50.814;8.530;2022-07-23T01:26:09;18.80;99.90
30174;DHT22;16985;50.814;8.530;2022-07-23T01:28:36;18.80;99.90
30174;DHT22;16985;50.814;8.530;2022-07-23T01:31:02;18.80;99.90
30174;DHT22;16985;50.814;8.530;2022-07-23T01:33:32;18.70;99.90
30174;DHT22;16985;50.814;8.530;2022-07-23T01:35:58;18.80;99.90
30174;DHT22;16985;50.814;8.530;2022-07-23T01:38:25;18.70;99.90
30174;DHT22;16985;50.814;8.530;2022-07-23T01:40:51;18.70;99.90
30174;DHT22;16985;50.814;8.530;2022-07-23T01:43:17;18.70;99.90
30174;DHT22;16985;50.814;8.530;2022-07-23T01:45:43;18.60;99.90
30174;DHT22;16985;50.814;8.530;2022-07-23T01:48:10;18.70;99.90
30174;DHT22;16985;50.814;8.530;2022-07-23T01:50:39;18.60;99.90
30174;DHT22;16985;50.814;8.530;2022-07-23T01:53:29;18.60;99.90
30174;DHT22;16985;50.814;8.530;2022-07-23T01:55:57;18.60;99.90
30174;DHT22;16985;50.814;8.530;2022-07-23T01:58:25;18.50;99.90
30174;DHT22;16985;50.814;8.530;2022-07-23T02:00:51;18.60;99.90
30174;DHT22;16985;50.814;8.530;2022-07-23T02:03:17;18.60;99.90
30174;DHT22;16985;50.814;8.530;2022-07-23T02:05:43;18.50;99.90
30174;DHT22;16985;50.814;8.530;2022-07-23T02:08:09;18.50;99.90
30174;DHT22;16985;50.814;8.530;2022-07-23T02:10:36;18.50;99.90
30174;DHT22;16985;50.814;8.530;2022-07-23T02:13:03;18.50;99.90
30174;DHT22;16985;50.814;8.530;2022-07-23T02:15:29;18.50;99.90
30174;DHT22;16985;50.814;8.530;2022-07-23T02:17:55;18.50;99.90
30174;DHT22;16985;50.814;8.530;2022-07-23T02:20:22;18.50;99.90
30174;DHT22;16985;50.814;8.530;2022-07-23T02:22:48;18.50;99.90
30174;DHT22;16985;50.814;8.530;2022-07-23T02:25:14;18.50;99.90
30174;DHT22;16985;50.814;8.530;2022-07-23T02:27:40;18.40;99.90
30174;DHT22;16985;50.814;8.530;2022-07-23T02:30:07;18.50;99.90
30174;DHT22;16985;50.814;8.530;2022-07-23T02:32:34;18.40;99.90
30174;DHT22;16985;50.814;8.530;2022-07-23T02:35:00;18.40;99.90
30174;DHT22;16985;50.814;8.530;2022-07-23T02:37:26;18.40;99.90
30174;DHT22;16985;50.814;8.530;2022-07-23T02:39:52;18.40;99.90
30174;DHT22;16985;50.814;8.530;2022-07-23T02:42:18;18.40;99.90
30174;DHT22;16985;50.814;8.530;2022-07-23T02:44:45;18.40;99.90
30174;DHT22;16985;50.814;8.530;2022-07-23T02:47:11;18.40;99.90
30174;DHT22;16985;50.814;8.530;2022-07-23T02:49:37;18.40;99.90
30174;DHT22;16985;50.814;8.530;2022-07-23T02:52:05;18.40;99.90
30174;DHT22;16985;50.814;8.530;2022-07-23T02:54:31;18.40;99.90
30174;DHT22;16985;50.814;8.530;2022-07-23T02:56:56;18.40;99.90
30174;DHT22;16985;50.814;8.530;2022-07-23T02:59:22;18.40;99.90
30174;DHT22;16985;50.814;8.530;2022-07-23T03:01:48;18.30;99.90
30174;DHT22;16985;50.814;8.530;2022-07-23T03:04:14;18.40;99.90
30174;DHT22;16985;50.814;8.530;2022-07-23T03:06:41;18.40;99.90
30174;DHT22;16985;50.814;8.530;2022-07-23T03:09:07;18.30;99.90
30174;DHT22;16985;50.814;8.530;2022-07-23T03:11:33;18.40;99.90
30174;DHT22;16985;50.814;8.530;2022-07-23T03:13:59;18.30;99.90
30174;DHT22;16985;50.814;8.530;2022-07-23T03:16:24;18.30;99.90
30174;DHT22;16985;50.814;8.530;2022-07-23T03:18:50;18.30;99.90
30174;DHT22;16985;50.814;8.530;2022-07-23T03:21:16;18.30;99.90
30174;DHT22;16985;50.814;8.530;2022-07-23T03:23:42;18.30;99.90
30174;DHT22;16985;50.814;8.530;2022-07-23T03:26:08;18.30;99.90
30174;DHT22;16985;50.814;8.530;2022-07-23T03:28:34;18.30;99.90
30174;DHT22;16985;50.814;8.530;2022-07-23T03:31:00;18.30;99.90
30174;DHT22;16985;50.814;8.530;2022-07-23T03:33:25;18.20;99.90
30174;DHT22;16985;50.814;8.530;2022-07-23T03:35:52;18.20;99.90
30174;DHT22;16985;50.814;8.530;2022-07-23T03:38:25;18.20;99.90
30174;DHT22;16985;50.814;8.530;2022-07-23T03:40:50;18.20;99.90
30174;DHT22;16985;50.814;8.530;2022-07-23T03:43:17;18.20;99.90
30174;DHT22;16985;50.814;8.530;2022-07-23T03:45:43;18.20;99.90
30174;DHT22;16985;50.814;8.530;2022-07-23T03:48:09;18.20;99.90
30174;DHT22;16985;50.814;8.530;2022-07-23T03:50:35;18.20;99.90
30174;DHT22;16985;50.814;8.530;2022-07-23T03:53:02;18.20;99.90
30174;DHT22;16985;50.814;8.530;2022-07-23T03:55:28;18.10;99.90
30174;DHT22;16985;50.814;8.530;2022-07-23T03:57:54;18.20;99.90
30174;DHT22;16985;50.814;8.530;2022-07-23T04:00:20;18.10;99.90
30174;DHT22;16985;50.814;8.530;2022-07-23T04:02:49;18.10;99.90
30174;DHT22;16985;50.814;8.530;2022-07-23T04:05:16;18.10;99.90
30174;DHT22;16985;50.814;8.530;2022-07-23T04:07:43;18.10;99.90
30174;DHT22;16985;50.814;8.530;2022-07-23T04:10:09;18.10;99.90
30174;DHT22;16985;50.814;8.530;2022-07-23T04:12:34;18.00;99.90
30174;DHT22;16985;50.814;8.530;2022-07-23T04:15:02;18.00;99.90
30174;DHT22;16985;50.814;8.530;2022-07-23T04:17:28;18.00;99.90
30174;DHT22;16985;50.814;8.530;2022-07-23T04:19:54;17.90;99.90
30174;DHT22;16985;50.814;8.530;2022-07-23T04:22:23;17.90;99.90
30174;DHT22;16985;50.814;8.530;2022-07-23T04:24:48;17.90;99.90
30174;DHT22;16985;50.814;8.530;2022-07-23T04:27:15;17.90;99.90
30174;DHT22;16985;50.814;8.530;2022-07-23T04:29:41;17.80;99.90
30174;DHT22;16985;50.814;8.530;2022-07-23T04:32:07;17.80;99.90
30174;DHT22;16985;50.814;8.530;2022-07-23T04:34:33;17.90;99.90
30174;DHT22;16985;50.814;8.530;2022-07-23T04:36:59;17.80;99.90
30174;DHT22;16985;50.814;8.530;2022-07-23T04:39:26;17.80;99.90
30174;DHT22;16985;50.814;8.530;2022-07-23T04:41:52;17.80;99.90
30174;DHT22;16985;50.814;8.530;2022-07-23T04:44:18;17.80;99.90
30174;DHT22;16985;50.814;8.530;2022-07-23T04:46:45;17.70;99.90
30174;DHT22;16985;50.814;8.530;2022-07-23T04:49:11;17.70;99.90
30174;DHT22;16985;50.814;8.530;2022-07-23T04:51:37;17.70;99.90
30174;DHT22;16985;50.814;8.530;2022-07-23T04:54:03;17.70;99.90
30174;DHT22;16985;50.814;8.530;2022-07-23T04:56:30;17.70;99.90
30174;DHT22;16985;50.814;8.530;2022-07-23T04:58:55;17.70;99.90
30174;DHT22;16985;50.814;8.530;2022-07-23T05:01:21;17.70;99.90
30174;DHT22;16985;50.814;8.530;2022-07-23T05:03:47;17.80;99.90
30174;DHT22;16985;50.814;8.530;2022-07-23T05:06:15;17.80;99.90
30174;DHT22;16985;50.814;8.530;2022-07-23T05:08:41;17.80;99.90
30174;DHT22;16985;50.814;8.530;2022-07-23T05:11:08;17.80;99.90
30174;DHT22;16985;50.814;8.530;2022-07-23T05:13:34;17.80;99.90
30174;DHT22;16985;50.814;8.530;2022-07-23T05:16:00;17.80;99.90
30174;DHT22;16985;50.814;8.530;2022-07-23T05:18:26;17.80;99.90
30174;DHT22;16985;50.814;8.530;2022-07-23T05:20:52;17.90;99.90
30174;DHT22;16985;50.814;8.530;2022-07-23T05:23:21;17.90;99.90
30174;DHT22;16985;50.814;8.530;2022-07-23T05:25:48;17.90;99.90
30174;DHT22;16985;50.814;8.530;2022-07-23T05:28:15;18.00;99.90
30174;DHT22;16985;50.814;8.530;2022-07-23T05:30:42;18.00;99.90
30174;DHT22;16985;50.814;8.530;2022-07-23T05:33:11;18.00;99.90
30174;DHT22;16985;50.814;8.530;2022-07-23T05:35:37;18.00;99.90
30174;DHT22;16985;50.814;8.530;2022-07-23T05:38:22;18.10;99.90
30174;DHT22;16985;50.814;8.530;2022-07-23T05:40:48;18.10;99.90
30174;DHT22;16985;50.814;8.530;2022-07-23T05:43:14;18.10;99.90
30174;DHT22;16985;50.814;8.530;2022-07-23T05:45:40;18.10;99.90
30174;DHT22;16985;50.814;8.530;2022-07-23T05:48:06;18.20;99.90
30174;DHT22;16985;50.814;8.530;2022-07-23T05:50:38;18.20;99.90
30174;DHT22;16985;50.814;8.530;2022-07-23T05:53:13;18.20;99.90
30174;DHT22;16985;50.814;8.530;2022-07-23T05:56:08;18.20;99.90
30174;DHT22;16985;50.814;8.530;2022-07-23T05:58:35;18.20;99.90
30174;DHT22;16985;50.814;8.530;2022-07-23T06:01:01;18.20;99.90
30174;DHT22;16985;50.814;8.530;2022-07-23T06:03:31;18.20;99.90
30174;DHT22;16985;50.814;8.530;2022-07-23T06:05:57;18.20;99.90
30174;DHT22;16985;50.814;8.530;2022-07-23T06:08:23;18.10;99.90
30174;DHT22;16985;50.814;8.530;2022-07-23T06:10:49;18.20;99.90
30174;DHT22;16985;50.814;8.530;2022-07-23T06:13:17;18.20;99.90
30174;DHT22;16985;50.814;8.530;2022-07-23T06:15:44;18.20;99.90
30174;DHT22;16985;50.814;8.530;2022-07-23T06:18:09;18.20;99.90
30174;DHT22;16985;50.814;8.530;2022-07-23T06:20:38;18.20;99.90
30174;DHT22;16985;50.814;8.530;2022-07-23T06:23:04;18.30;99.90
30174;DHT22;16985;50.814;8.530;2022-07-23T06:25:30;18.30;99.90
30174;DHT22;16985;50.814;8.530;2022-07-23T06:27:55;18.30;99.90
30174;DHT22;16985;50.814;8.530;2022-07-23T06:30:22;18.30;99.90
30174;DHT22;16985;50.814;8.530;2022-07-23T06:32:48;18.30;99.90
30174;DHT22;16985;50.814;8.530;2022-07-23T06:35:15;18.30;99.90
30174;DHT22;16985;50.814;8.530;2022-07-23T06:37:41;18.40;99.90
30174;DHT22;16985;50.814;8.530;2022-07-23T06:40:07;18.40;99.90
30174;DHT22;16985;50.814;8.530;2022-07-23T06:42:36;18.50;99.90
30174;DHT22;16985;50.814;8.530;2022-07-23T06:45:05;18.50;99.90
30174;DHT22;16985;50.814;8.530;2022-07-23T06:47:33;18.50;99.90
30174;DHT22;16985;50.814;8.530;2022-07-23T06:50:00;18.50;99.90
30174;DHT22;16985;50.814;8.530;2022-07-23T06:52:26;18.60;99.90
30174;DHT22;16985;50.814;8.530;2022-07-23T06:54:52;18.60;99.90
30174;DHT22;16985;50.814;8.530;2022-07-23T06:57:18;18.60;99.90
30174;DHT22;16985;50.814;8.530;2022-07-23T06:59:44;18.70;99.90
30174;DHT22;16985;50.814;8.530;2022-07-23T07:02:10;18.70;99.90
30174;DHT22;16985;50.814;8.530;2022-07-23T07:04:36;18.70;99.90
30174;DHT22;16985;50.814;8.530;2022-07-23T07:07:01;18.70;99.90
30174;DHT22;16985;50.814;8.530;2022-07-23T07:09:27;18.70;99.90
30174;DHT22;16985;50.814;8.530;2022-07-23T07:11:53;18.70;99.90
30174;DHT22;16985;50.814;8.530;2022-07-23T07:14:20;18.80;99.90
30174;DHT22;16985;50.814;8.530;2022-07-23T07:16:46;18.80;99.90
30174;DHT22;16985;50.814;8.530;2022-07-23T07:19:12;18.80;99.90
30174;DHT22;16985;50.814;8.530;2022-07-23T07:21:38;18.90;99.90
30174;DHT22;16985;50.814;8.530;2022-07-23T07:24:04;18.80;99.90
30174;DHT22;16985;50.814;8.530;2022-07-23T07:26:30;18.90;99.90
30174;DHT22;16985;50.814;8.530;2022-07-23T07:28:56;18.90;99.90
30174;DHT22;16985;50.814;8.530;2022-07-23T07:31:22;19.00;99.90
30174;DHT22;16985;50.814;8.530;2022-07-23T07:33:49;19.00;99.90
30174;DHT22;16985;50.814;8.530;2022-07-23T07:36:14;19.10;99.90
30174;DHT22;16985;50.814;8.530;2022-07-23T07:38:40;19.10;99.90
30174;DHT22;16985;50.814;8.530;2022-07-23T07:41:06;19.20;99.90
30174;DHT22;16985;50.814;8.530;2022-07-23T07:43:33;19.20;99.90
30174;DHT22;16985;50.814;8.530;2022-07-23T07:45:59;19.20;99.90
30174;DHT22;16985;50.814;8.530;2022-07-23T07:48:25;19.30;99.90
30174;DHT22;16985;50.814;8.530;2022-07-23T07:50:51;19.40;99.90
30174;DHT22;16985;50.814;8.530;2022-07-23T07:53:17;19.40;99.90
30174;DHT22;16985;50.814;8.530;2022-07-23T07:55:42;19.40;99.90
30174;DHT22;16985;50.814;8.530;2022-07-23T07:58:08;19.50;99.90
30174;DHT22;16985;50.814;8.530;2022-07-23T08:00:34;19.50;99.90
30174;DHT22;16985;50.814;8.530;2022-07-23T08:03:00;19.60;99.90
30174;DHT22;16985;50.814;8.530;2022-07-23T08:05:28;19.60;99.90
30174;DHT22;16985;50.814;8.530;2022-07-23T08:07:56;19.70;99.90
30174;DHT22;16985;50.814;8.530;2022-07-23T08:10:25;19.80;99.90
30174;DHT22;16985;50.814;8.530;2022-07-23T08:12:53;19.90;99.90
30174;DHT22;16985;50.814;8.530;2022-07-23T08:15:21;20.00;99.90
30174;DHT22;16985;50.814;8.530;2022-07-23T08:17:48;20.00;99.90
30174;DHT22;16985;50.814;8.530;2022-07-23T08:20:16;20.00;99.90
30174;DHT22;16985;50.814;8.530;2022-07-23T08:22:46;20.10;99.90
30174;DHT22;16985;50.814;8.530;2022-07-23T08:25:13;20.20;99.90
30174;DHT22;16985;50.814;8.530;2022-07-23T08:27:40;20.30;99.60
30174;DHT22;16985;50.814;8.530;2022-07-23T08:30:07;20.40;99.50
30174;DHT22;16985;50.814;8.530;2022-07-23T08:32:33;20.50;99.30
30174;DHT22;16985;50.814;8.530;2022-07-23T08:34:58;20.60;98.70
30174;DHT22;16985;50.814;8.530;2022-07-23T08:37:24;20.60;98.50
30174;DHT22;16985;50.814;8.530;2022-07-23T08:39:50;20.70;98.20
30174;DHT22;16985;50.814;8.530;2022-07-23T08:42:16;20.70;98.20
30174;DHT22;16985;50.814;8.530;2022-07-23T08:44:44;20.70;98.00
30174;DHT22;16985;50.814;8.530;2022-07-23T08:47:14;20.80;97.70
30174;DHT22;16985;50.814;8.530;2022-07-23T08:49:41;20.80;97.40
30174;DHT22;16985;50.814;8.530;2022-07-23T08:52:07;20.90;97.40
30174;DHT22;16985;50.814;8.530;2022-07-23T08:54:34;20.90;97.30
30174;DHT22;16985;50.814;8.530;2022-07-23T08:57:00;21.00;97.20
30174;DHT22;16985;50.814;8.530;2022-07-23T08:59:26;21.00;97.60
30174;DHT22;16985;50.814;8.530;2022-07-23T09:01:53;21.10;97.20
30174;DHT22;16985;50.814;8.530;2022-07-23T09:04:18;21.10;96.60
30174;DHT22;16985;50.814;8.530;2022-07-23T09:06:45;21.10;96.40
30174;DHT22;16985;50.814;8.530;2022-07-23T09:09:20;21.20;96.10
30174;DHT22;16985;50.814;8.530;2022-07-23T09:11:48;21.30;95.40
30174;DHT22;16985;50.814;8.530;2022-07-23T09:14:14;21.30;95.20
30174;DHT22;16985;50.814;8.530;2022-07-23T09:16:39;21.40;95.10
30174;DHT22;16985;50.814;8.530;2022-07-23T09:19:07;21.60;95.10
30174;DHT22;16985;50.814;8.530;2022-07-23T09:21:37;21.70;95.10
30174;DHT22;16985;50.814;8.530;2022-07-23T09:24:07;21.80;95.30
30174;DHT22;16985;50.814;8.530;2022-07-23T09:29:19;22.00;94.70
30174;DHT22;16985;50.814;8.530;2022-07-23T09:31:52;22.00;94.30
30174;DHT22;16985;50.814;8.530;2022-07-23T09:36:55;22.00;93.40
30174;DHT22;16985;50.814;8.530;2022-07-23T09:39:42;22.00;93.30
30174;DHT22;16985;50.814;8.530;2022-07-23T09:44:47;22.00;93.20
30174;DHT22;16985;50.814;8.530;2022-07-23T09:47:14;22.00;92.60
30174;DHT22;16985;50.814;8.530;2022-07-23T09:50:00;22.00;92.40
30174;DHT22;16985;50.814;8.530;2022-07-23T09:52:28;22.00;92.50
30174;DHT22;16985;50.814;8.530;2022-07-23T09:55:03;22.00;92.90
30174;DHT22;16985;50.814;8.530;2022-07-23T09:57:31;22.20;92.60
30174;DHT22;16985;50.814;8.530;2022-07-23T10:00:01;22.20;92.50
30174;DHT22;16985;50.814;8.530;2022-07-23T10:02:32;22.40;92.20
30174;DHT22;16985;50.814;8.530;2022-07-23T10:05:19;22.50;91.90
30174;DHT22;16985;50.814;8.530;2022-07-23T10:08:07;22.70;91.50
30174;DHT22;16985;50.814;8.530;2022-07-23T10:10:50;22.80;91.00
30174;DHT22;16985;50.814;8.530;2022-07-23T10:13:35;22.90;90.80
30174;DHT22;16985;50.814;8.530;2022-07-23T10:16:25;23.10;90.70
30174;DHT22;16985;50.814;8.530;2022-07-23T10:18:52;23.30;90.00
30174;DHT22;16985;50.814;8.530;2022-07-23T10:21:34;23.40;88.70
30174;DHT22;16985;50.814;8.530;2022-07-23T10:24:14;23.50;87.20
30174;DHT22;16985;50.814;8.530;2022-07-23T10:35:59;24.10;83.10
30174;DHT22;16985;50.814;8.530;2022-07-23T10:41:36;24.40;81.20
30174;DHT22;16985;50.814;8.530;2022-07-23T10:44:16;24.60;80.00
30174;DHT22;16985;50.814;8.530;2022-07-23T10:46:59;24.70;78.40
30174;DHT22;16985;50.814;8.530;2022-07-23T10:49:33;24.90;74.90
30174;DHT22;16985;50.814;8.530;2022-07-23T10:54:45;25.20;74.50
30174;DHT22;16985;50.814;8.530;2022-07-23T10:57:13;25.20;73.70
30174;DHT22;16985;50.814;8.530;2022-07-23T11:02:42;25.30;71.80
30174;DHT22;16985;50.814;8.530;2022-07-23T11:05:11;25.30;71.00
30174;DHT22;16985;50.814;8.530;2022-07-23T11:10:44;25.10;70.00
30174;DHT22;16985;50.814;8.530;2022-07-23T11:13:40;25.00;69.70
30174;DHT22;16985;50.814;8.530;2022-07-23T11:26:45;25.30;69.70
30174;DHT22;16985;50.814;8.530;2022-07-23T11:32:08;25.50;67.70
30174;DHT22;16985;50.814;8.530;2022-07-23T11:34:45;25.70;65.80
30174;DHT22;16985;50.814;8.530;2022-07-23T11:37:28;25.90;65.20
30174;DHT22;16985;50.814;8.530;2022-07-23T11:40:01;26.10;65.30
30174;DHT22;16985;50.814;8.530;2022-07-23T11:42:34;26.40;65.00
30174;DHT22;16985;50.814;8.530;2022-07-23T11:45:01;26.40;64.00
30174;DHT22;16985;50.814;8.530;2022-07-23T11:47:27;26.70;63.10
30174;DHT22;16985;50.814;8.530;2022-07-23T11:49:57;26.80;61.50
30174;DHT22;16985;50.814;8.530;2022-07-23T11:52:25;27.00;60.70
30174;DHT22;16985;50.814;8.530;2022-07-23T11:54:53;27.20;59.10
30174;DHT22;16985;50.814;8.530;2022-07-23T11:57:25;27.30;58.40
30174;DHT22;16985;50.814;8.530;2022-07-23T11:59:55;27.50;57.70
30174;DHT22;16985;50.814;8.530;2022-07-23T12:02:23;27.70;57.40
30174;DHT22;16985;50.814;8.530;2022-07-23T12:04:52;27.80;56.90
30174;DHT22;16985;50.814;8.530;2022-07-23T12:07:37;27.90;57.20
30174;DHT22;16985;50.814;8.530;2022-07-23T12:10:10;27.90;56.90
30174;DHT22;16985;50.814;8.530;2022-07-23T12:12:38;27.90;57.30
30174;DHT22;16985;50.814;8.530;2022-07-23T12:15:06;28.00;57.30
30174;DHT22;16985;50.814;8.530;2022-07-23T12:17:35;28.10;57.40
30174;DHT22;16985;50.814;8.530;2022-07-23T12:20:05;28.20;57.10
30174;DHT22;16985;50.814;8.530;2022-07-23T12:22:53;28.20;56.50
30174;DHT22;16985;50.814;8.530;2022-07-23T12:25:23;28.20;55.80
30174;DHT22;16985;50.814;8.530;2022-07-23T12:28:11;28.20;55.90
30174;DHT22;16985;50.814;8.530;2022-07-23T12:33:33;28.20;56.20
30174;DHT22;16985;50.814;8.530;2022-07-23T12:36:04;28.30;55.50
30174;DHT22;16985;50.814;8.530;2022-07-23T12:38:42;28.50;55.20
30174;DHT22;16985;50.814;8.530;2022-07-23T12:41:09;28.70;54.50
30174;DHT22;16985;50.814;8.530;2022-07-23T12:43:41;28.70;53.70
30174;DHT22;16985;50.814;8.530;2022-07-23T12:46:19;29.00;53.20
30174;DHT22;16985;50.814;8.530;2022-07-23T12:51:28;29.20;52.90
30174;DHT22;16985;50.814;8.530;2022-07-23T12:54:06;29.30;52.00
30174;DHT22;16985;50.814;8.530;2022-07-23T12:56:35;29.40;51.60
30174;DHT22;16985;50.814;8.530;2022-07-23T13:01:41;29.70;51.10
30174;DHT22;16985;50.814;8.530;2022-07-23T13:09:21;29.40;51.10
30174;DHT22;16985;50.814;8.530;2022-07-23T13:11:49;29.20;50.90
30174;DHT22;16985;50.814;8.530;2022-07-23T13:14:16;28.90;51.50
30174;DHT22;16985;50.814;8.530;2022-07-23T13:16:43;28.80;52.00
30174;DHT22;16985;50.814;8.530;2022-07-23T13:19:11;28.80;52.60
30174;DHT22;16985;50.814;8.530;2022-07-23T13:21:38;28.80;53.40
30174;DHT22;16985;50.814;8.530;2022-07-23T13:24:04;28.70;53.60
30174;DHT22;16985;50.814;8.530;2022-07-23T13:26:30;28.60;53.40
30174;DHT22;16985;50.814;8.530;2022-07-23T13:28:56;28.50;53.50
30174;DHT22;16985;50.814;8.530;2022-07-23T13:31:23;28.40;54.00
30174;DHT22;16985;50.814;8.530;2022-07-23T13:33:49;28.50;54.00
30174;DHT22;16985;50.814;8.530;2022-07-23T13:36:15;28.50;54.00
30174;DHT22;16985;50.814;8.530;2022-07-23T13:38:41;28.50;53.90
30174;DHT22;16985;50.814;8.530;2022-07-23T13:41:07;28.50;54.40
30174;DHT22;16985;50.814;8.530;2022-07-23T13:43:33;28.50;54.70
30174;DHT22;16985;50.814;8.530;2022-07-23T13:45:59;28.50;54.70
30174;DHT22;16985;50.814;8.530;2022-07-23T13:48:25;28.40;54.20
30174;DHT22;16985;50.814;8.530;2022-07-23T13:50:51;28.20;54.50
30174;DHT22;16985;50.814;8.530;2022-07-23T13:53:19;28.20;54.50
30174;DHT22;16985;50.814;8.530;2022-07-23T13:55:47;28.10;55.00
30174;DHT22;16985;50.814;8.530;2022-07-23T13:58:15;28.10;54.70
30174;DHT22;16985;50.814;8.530;2022-07-23T14:00:45;28.00;54.80
30174;DHT22;16985;50.814;8.530;2022-07-23T14:03:12;28.00;54.50
30174;DHT22;16985;50.814;8.530;2022-07-23T14:05:38;27.90;54.90
30174;DHT22;16985;50.814;8.530;2022-07-23T14:08:04;28.00;55.00
30174;DHT22;16985;50.814;8.530;2022-07-23T14:10:30;28.10;55.10
30174;DHT22;16985;50.814;8.530;2022-07-23T14:12:56;28.20;55.00
30174;DHT22;16985;50.814;8.530;2022-07-23T14:15:28;28.30;55.00
30174;DHT22;16985;50.814;8.530;2022-07-23T14:17:56;28.40;54.80
30174;DHT22;16985;50.814;8.530;2022-07-23T14:20:23;28.30;55.00
30174;DHT22;16985;50.814;8.530;2022-07-23T14:22:49;28.30;54.60
30174;DHT22;16985;50.814;8.530;2022-07-23T14:25:15;28.30;54.50
30174;DHT22;16985;50.814;8.530;2022-07-23T14:27:42;28.20;54.80
30174;DHT22;16985;50.814;8.530;2022-07-23T14:30:09;28.20;54.50
30174;DHT22;16985;50.814;8.530;2022-07-23T14:32:36;28.10;54.60
30174;DHT22;16985;50.814;8.530;2022-07-23T14:35:03;28.00;54.80
30174;DHT22;16985;50.814;8.530;2022-07-23T14:37:30;27.90;54.70
30174;DHT22;16985;50.814;8.530;2022-07-23T14:39:56;27.80;55.00
30174;DHT22;16985;50.814;8.530;2022-07-23T14:42:22;27.70;55.30
30174;DHT22;16985;50.814;8.530;2022-07-23T14:44:47;27.60;55.60
30174;DHT22;16985;50.814;8.530;2022-07-23T14:47:13;27.60;56.00
30174;DHT22;16985;50.814;8.530;2022-07-23T14:49:39;27.60;56.50
30174;DHT22;16985;50.814;8.530;2022-07-23T14:52:05;27.60;56.40
30174;DHT22;16985;50.814;8.530;2022-07-23T14:54:32;27.70;56.20
30174;DHT22;16985;50.814;8.530;2022-07-23T14:56:59;27.80;55.80
30174;DHT22;16985;50.814;8.530;2022-07-23T14:59:26;27.80;55.30
30174;DHT22;16985;50.814;8.530;2022-07-23T15:01:53;27.80;54.80
30174;DHT22;16985;50.814;8.530;2022-07-23T15:04:19;27.60;54.40
30174;DHT22;16985;50.814;8.530;2022-07-23T15:06:45;27.60;54.50
30174;DHT22;16985;50.814;8.530;2022-07-23T15:09:11;27.60;54.50
30174;DHT22;16985;50.814;8.530;2022-07-23T15:11:37;27.60;54.50
30174;DHT22;16985;50.814;8.530;2022-07-23T15:14:06;27.60;54.60
30174;DHT22;16985;50.814;8.530;2022-07-23T15:16:33;27.60;54.50
30174;DHT22;16985;50.814;8.530;2022-07-23T15:19:00;27.60;54.80
30174;DHT22;16985;50.814;8.530;2022-07-23T15:21:27;27.60;55.10
30174;DHT22;16985;50.814;8.530;2022-07-23T15:23:54;27.70;54.40
30174;DHT22;16985;50.814;8.530;2022-07-23T15:26:30;27.70;53.90
30174;DHT22;16985;50.814;8.530;2022-07-23T15:28:56;27.80;54.40
30174;DHT22;16985;50.814;8.530;2022-07-23T15:31:24;27.80;54.00
30174;DHT22;16985;50.814;8.530;2022-07-23T15:33:51;27.90;54.50
30174;DHT22;16985;50.814;8.530;2022-07-23T15:36:18;28.00;54.10
30174;DHT22;16985;50.814;8.530;2022-07-23T15:38:44;27.90;53.90
30174;DHT22;16985;50.814;8.530;2022-07-23T15:41:10;27.90;53.40
30174;DHT22;16985;50.814;8.530;2022-07-23T15:43:36;27.90;53.30
30174;DHT22;16985;50.814;8.530;2022-07-23T15:46:04;27.90;53.30
30174;DHT22;16985;50.814;8.530;2022-07-23T15:48:30;27.90;53.40
30174;DHT22;16985;50.814;8.530;2022-07-23T15:50:56;27.90;53.30
30174;DHT22;16985;50.814;8.530;2022-07-23T15:53:21;27.80;53.00
30174;DHT22;16985;50.814;8.530;2022-07-23T15:55:47;27.70;52.80
30174;DHT22;16985;50.814;8.530;2022-07-23T15:58:13;27.70;53.10
30174;DHT22;16985;50.814;8.530;2022-07-23T16:00:40;27.70;53.20
30174;DHT22;16985;50.814;8.530;2022-07-23T16:03:06;27.70;53.50
30174;DHT22;16985;50.814;8.530;2022-07-23T16:05:32;27.70;53.50
30174;DHT22;16985;50.814;8.530;2022-07-23T16:08:00;27.60;53.50
30174;DHT22;16985;50.814;8.530;2022-07-23T16:10:27;27.50;53.60
30174;DHT22;16985;50.814;8.530;2022-07-23T16:12:53;27.30;53.90
30174;DHT22;16985;50.814;8.530;2022-07-23T16:15:19;27.20;54.10
30174;DHT22;16985;50.814;8.530;2022-07-23T16:17:45;27.10;54.20
30174;DHT22;16985;50.814;8.530;2022-07-23T16:20:12;27.00;54.90
30174;DHT22;16985;50.814;8.530;2022-07-23T16:22:38;26.90;54.50
30174;DHT22;16985;50.814;8.530;2022-07-23T16:25:05;26.80;54.70
30174;DHT22;16985;50.814;8.530;2022-07-23T16:27:33;26.80;54.80
30174;DHT22;16985;50.814;8.530;2022-07-23T16:30:00;26.70;55.00